Time;durP1;ratioP1;P1;durP2;ratioP2;P2;SDS_P1;SDS_P2;PMS_P1;PMS_P2;Temp;Humidity;BMP_temperature;BMP_pressure;BME280_temperature;BME280_humidity;BME280_pressure;Samples;Min_cycle;Max_cycle;Signal;HPM_P1;HPM_P2
2022/02/01 00:00:41;;;;;;;7.85;1.75;;;3.40;99.90;;;;;;5086001;28;20063;-69
2022/02/01 00:03:09;;;;;;;4.78;1.75;;;3.40;99.90;;;;;;5086667;28;20056;-69
2022/02/01 00:10:48;;;;;;;5.53;1.33;;;3.40;99.90;;;;;;5106215;28;20089;-68
2022/02/01 00:13:31;;;;;;;9.00;1.52;;;3.40;99.90;;;;;;5106449;28;20066;-69
2022/02/01 00:18:40;;;;;;;8.25;1.33;;;3.40;99.90;;;;;;5106673;28;20065;-70
2022/02/01 00:35:32;;;;;;;;;;;3.60;99.90;;;;;;5066432;28;20055;-70
2022/02/01 00:37:52;;;;;;;6.63;1.77;;;3.50;99.90;;;;;;5063309;28;19905;-68
2022/02/01 00:40:18;;;;;;;8.45;1.10;;;3.50;99.90;;;;;;5076058;28;20044;-70
2022/02/01 00:42:43;;;;;;;5.00;1.35;;;3.50;99.90;;;;;;5085878;28;20033;-68
2022/02/01 00:45:09;;;;;;;5.68;1.30;;;3.50;99.90;;;;;;5072850;28;20057;-68
2022/02/01 00:47:34;;;;;;;5.53;0.90;;;3.50;99.90;;;;;;5065711;28;20029;-69
2022/02/01 00:50:00;;;;;;;3.70;1.75;;;3.50;99.90;;;;;;5065409;28;20449;-69
2022/02/01 00:52:27;;;;;;;12.75;0.98;;;3.40;99.90;;;;;;5065134;28;20033;-68
2022/02/01 00:54:53;;;;;;;9.60;1.27;;;3.50;99.90;;;;;;5065508;28;20048;-71
2022/02/01 00:57:19;;;;;;;11.00;1.23;;;3.40;99.90;;;;;;5065143;28;20397;-71
2022/02/01 00:59:46;;;;;;;7.65;1.02;;;3.40;99.90;;;;;;5065711;28;20027;-69
2022/02/01 01:02:11;;;;;;;2.95;1.17;;;3.40;99.90;;;;;;5065210;28;20068;-70
2022/02/01 01:04:37;;;;;;;6.93;1.02;;;3.40;99.90;;;;;;5065066;28;20037;-70
2022/02/01 01:07:03;;;;;;;9.35;1.75;;;3.40;99.90;;;;;;5065373;28;20052;-68
2022/02/01 01:09:29;;;;;;;11.98;1.48;;;3.30;99.90;;;;;;5080756;28;20032;-68
2022/02/01 01:11:57;;;;;;;14.07;1.50;;;3.30;99.90;;;;;;5070615;28;20036;-69
2022/02/01 01:43:59;;;;;;;12.20;1.45;;;3.00;99.90;;;;;;5064559;28;20048;-69
2022/02/01 01:54:23;;;;;;;10.55;1.25;;;3.00;99.90;;;;;;5064325;28;20063;-69
2022/02/01 01:56:53;;;;;;;13.45;1.33;;;3.00;99.90;;;;;;5064220;28;20025;-71
2022/02/01 01:59:19;;;;;;;12.70;1.48;;;3.00;99.90;;;;;;5064716;28;20031;-70
2022/02/01 02:01:44;;;;;;;1.50;0.57;;;3.00;99.90;;;;;;5064558;28;20116;-69
2022/02/01 02:04:10;;;;;;;6.60;1.15;;;3.00;99.90;;;;;;5064647;28;20033;-69
2022/02/01 02:06:38;;;;;;;7.72;1.67;;;3.00;99.90;;;;;;5064540;28;20135;-69
2022/02/01 02:09:06;;;;;;;3.20;1.52;;;3.00;99.90;;;;;;5064161;28;20056;-69
2022/02/01 02:14:29;;;;;;;5.70;1.30;;;3.00;99.90;;;;;;5064565;28;20041;-69
2022/02/01 02:16:58;;;;;;;8.63;1.05;;;3.00;99.90;;;;;;5063997;28;20021;-69
2022/02/01 02:19:26;;;;;;;3.70;1.58;;;3.00;99.90;;;;;;5064182;28;20032;-70
2022/02/01 02:21:56;;;;;;;15.15;1.48;;;2.90;99.90;;;;;;5064737;28;20047;-69
2022/02/01 02:24:28;;;;;;;4.65;1.35;;;2.90;99.90;;;;;;5068405;28;20035;-70
2022/02/01 02:26:55;;;;;;;10.82;1.27;;;3.00;99.90;;;;;;5070265;28;20066;-70
2022/02/01 02:29:21;;;;;;;3.13;1.63;;;2.90;99.90;;;;;;5084594;28;20052;-70
2022/02/01 02:31:47;;;;;;;8.80;1.40;;;3.00;99.90;;;;;;5084510;28;20017;-69
2022/02/01 02:34:14;;;;;;;2.85;1.02;;;2.90;99.90;;;;;;5084357;28;20088;-68
2022/02/01 02:36:45;;;;;;;5.20;1.17;;;3.00;99.90;;;;;;5084616;28;20021;-69
2022/02/01 02:41:52;;;;;;;1.50;0.75;;;2.90;99.90;;;;;;5084618;28;20031;-71
2022/02/01 02:47:05;;;;;;;15.25;0.82;;;3.00;99.90;;;;;;5064224;28;20066;-69
2022/02/01 02:49:31;;;;;;;3.42;0.43;;;3.00;99.90;;;;;;5073676;28;20059;-68
2022/02/01 02:51:57;;;;;;;12.20;1.27;;;3.00;99.90;;;;;;5084230;28;20025;-68
2022/02/01 02:54:25;;;;;;;6.30;1.73;;;3.00;99.90;;;;;;5083961;28;20059;-69
2022/02/01 02:56:54;;;;;;;8.98;1.05;;;3.00;99.90;;;;;;5084071;28;20097;-70
2022/02/01 02:59:22;;;;;;;5.10;0.85;;;3.00;99.90;;;;;;5083531;28;20078;-70
2022/02/01 03:01:49;;;;;;;5.03;1.00;;;3.00;99.90;;;;;;5087360;28;20050;-70
2022/02/01 03:04:15;;;;;;;5.78;2.22;;;3.00;99.90;;;;;;5087826;28;20060;-69
2022/02/01 03:06:43;;;;;;;3.35;0.82;;;3.00;99.90;;;;;;5087501;28;20016;-69
2022/02/01 03:09:09;;;;;;;5.20;1.75;;;3.00;99.90;;;;;;5087591;28;20028;-69
2022/02/01 03:11:35;;;;;;;8.73;1.00;;;3.00;99.90;;;;;;5087525;28;20025;-69
2022/02/01 03:14:05;;;;;;;5.13;1.15;;;3.00;99.90;;;;;;5087240;28;20036;-71
2022/02/01 03:21:43;;;;;;;;;;;3.10;99.90;;;;;;5068300;28;20059;-69
2022/02/01 03:24:09;;;;;;;7.15;1.38;;;3.10;99.90;;;;;;5067393;28;19909;-71
2022/02/01 03:26:34;;;;;;;7.30;0.82;;;3.10;99.90;;;;;;5067043;28;20025;-70
2022/02/01 03:29:00;;;;;;;5.53;1.13;;;3.10;99.90;;;;;;5066976;28;20029;-70
2022/02/01 03:31:26;;;;;;;1.90;0.65;;;3.10;99.90;;;;;;5067064;28;20091;-70
2022/02/01 03:33:51;;;;;;;13.13;1.02;;;3.10;99.90;;;;;;5067312;28;20076;-70
2022/02/01 03:36:17;;;;;;;4.22;1.23;;;3.10;99.90;;;;;;5067277;28;20032;-70
2022/02/01 03:38:43;;;;;;;4.38;0.95;;;3.20;99.90;;;;;;5067140;28;20134;-70
2022/02/01 03:41:08;;;;;;;8.18;0.70;;;3.10;99.90;;;;;;5066942;28;20022;-69
2022/02/01 03:43:34;;;;;;;11.80;1.20;;;3.10;99.90;;;;;;5067000;28;20465;-69
2022/02/01 03:46:00;;;;;;;7.95;0.70;;;3.10;99.90;;;;;;5066775;28;20029;-69
2022/02/01 03:48:25;;;;;;;3.25;1.00;;;3.10;99.90;;;;;;5066927;28;20032;-70
2022/02/01 03:50:51;;;;;;;18.65;1.63;;;3.10;99.90;;;;;;5065637;28;20028;-69
2022/02/01 03:53:17;;;;;;;11.90;2.10;;;3.10;99.90;;;;;;5067711;28;20059;-71
2022/02/01 03:55:43;;;;;;;9.82;0.98;;;3.10;99.90;;;;;;5068712;28;20056;-70
2022/02/01 03:58:08;;;;;;;12.07;1.35;;;3.10;99.90;;;;;;5066229;28;20078;-69
2022/02/01 04:00:34;;;;;;;1.08;0.77;;;3.00;99.90;;;;;;5048796;28;20009;-70
2022/02/01 04:03:03;;;;;;;14.20;1.60;;;3.00;99.90;;;;;;5066204;28;20025;-69
2022/02/01 04:05:31;;;;;;;7.72;0.75;;;3.00;99.90;;;;;;5066358;28;20037;-69
2022/02/01 04:07:56;;;;;;;2.10;0.95;;;3.00;99.90;;;;;;5066611;28;20081;-69
2022/02/01 04:10:22;;;;;;;5.32;1.45;;;3.00;99.90;;;;;;5066181;28;20044;-69
2022/02/01 04:12:50;;;;;;;4.18;0.98;;;2.90;99.90;;;;;;5065344;28;20040;-71
2022/02/01 04:15:19;;;;;;;4.43;1.42;;;2.90;99.90;;;;;;5086219;28;20032;-70
2022/02/01 04:17:45;;;;;;;7.22;0.85;;;2.90;99.90;;;;;;5086343;28;20546;-69
2022/02/01 04:20:11;;;;;;;8.40;1.67;;;3.00;99.90;;;;;;5086099;28;20042;-70
2022/02/01 04:22:36;;;;;;;12.20;1.80;;;2.90;99.90;;;;;;5086164;28;20024;-69
2022/02/01 04:25:03;;;;;;;0.55;0.55;;;2.90;99.90;;;;;;5086035;28;20055;-69
2022/02/01 04:27:31;;;;;;;2.40;1.60;;;2.90;99.90;;;;;;5085775;28;20056;-69
2022/02/01 04:30:07;;;;;;;6.95;0.80;;;2.90;99.90;;;;;;5067825;28;20103;-68
2022/02/01 04:32:45;;;;;;;3.28;1.20;;;2.90;99.90;;;;;;5085798;28;20024;-68
2022/02/01 04:35:14;;;;;;;4.97;2.22;;;2.80;99.90;;;;;;5086023;28;20034;-68
2022/02/01 04:37:41;;;;;;;1.80;0.75;;;2.90;99.90;;;;;;5067970;28;20029;-68
2022/02/01 04:40:11;;;;;;;10.38;2.28;;;2.80;99.90;;;;;;5084344;28;20036;-70
2022/02/01 04:42:40;;;;;;;6.88;0.80;;;2.80;99.90;;;;;;5085973;28;20029;-69
2022/02/01 04:45:07;;;;;;;15.40;2.00;;;2.80;99.90;;;;;;5085678;28;20040;-69
2022/02/01 04:47:35;;;;;;;2.33;1.08;;;2.80;99.90;;;;;;5085728;28;20028;-68
2022/02/01 04:50:13;;;;;;;2.22;0.88;;;2.80;99.90;;;;;;5085784;28;20486;-68
2022/02/01 04:52:41;;;;;;;2.38;0.93;;;2.80;99.90;;;;;;5085366;28;20052;-70
2022/02/01 04:55:07;;;;;;;1.92;0.75;;;2.80;99.90;;;;;;5085516;28;20017;-69
2022/02/01 04:57:32;;;;;;;6.80;0.95;;;2.80;99.90;;;;;;5067282;28;20020;-67
2022/02/01 04:59:58;;;;;;;9.13;1.42;;;2.80;99.90;;;;;;5085321;28;20021;-68
2022/02/01 05:02:24;;;;;;;3.20;0.88;;;2.80;99.90;;;;;;5085336;28;20033;-69
2022/02/01 05:04:51;;;;;;;5.43;1.27;;;2.80;99.90;;;;;;5085174;28;20123;-70
2022/02/01 05:07:21;;;;;;;11.52;2.60;;;2.80;99.90;;;;;;5085374;28;20032;-70
2022/02/01 05:09:48;;;;;;;5.82;1.80;;;2.80;99.90;;;;;;5085659;28;20043;-70
2022/02/01 05:12:15;;;;;;;0.57;0.40;;;2.80;99.90;;;;;;5085527;28;20033;-69
2022/02/01 05:14:41;;;;;;;3.58;0.63;;;2.80;99.90;;;;;;5084965;28;20040;-69
2022/02/01 05:17:07;;;;;;;4.63;0.80;;;2.80;99.90;;;;;;5085375;28;20218;-68
2022/02/01 05:22:04;;;;;;;3.00;0.77;;;2.80;99.90;;;;;;5084941;28;20457;-71
2022/02/01 05:24:32;;;;;;;9.60;1.65;;;2.80;99.90;;;;;;5079045;28;20041;-69
2022/02/01 05:26:59;;;;;;;2.67;0.82;;;2.70;99.90;;;;;;5064961;28;20040;-69
2022/02/01 05:29:25;;;;;;;7.05;1.80;;;2.80;99.90;;;;;;5085139;28;20085;-71
2022/02/01 05:31:52;;;;;;;3.97;1.25;;;2.70;99.90;;;;;;5085250;28;20051;-69
2022/02/01 05:34:21;;;;;;;11.82;1.98;;;2.70;99.90;;;;;;5085009;28;20032;-70
2022/02/01 05:36:47;;;;;;;4.75;1.33;;;2.80;99.90;;;;;;5084839;28;20055;-70
2022/02/01 05:39:19;;;;;;;4.22;1.05;;;2.80;99.90;;;;;;5085008;28;20032;-68
2022/02/01 05:41:45;;;;;;;10.55;1.55;;;2.80;99.90;;;;;;5078161;28;20036;-68
2022/02/01 05:44:12;;;;;;;8.38;1.35;;;2.80;99.90;;;;;;5073930;28;20472;-68
2022/02/01 05:46:39;;;;;;;1.70;0.68;;;2.90;99.90;;;;;;5080662;28;20432;-69
2022/02/01 05:49:05;;;;;;;3.70;1.10;;;2.90;99.90;;;;;;5071588;28;20033;-69
2022/02/01 05:51:31;;;;;;;5.82;1.10;;;2.90;99.90;;;;;;5064553;28;20028;-69
2022/02/01 05:53:57;;;;;;;11.98;2.58;;;3.00;99.90;;;;;;5078735;28;20100;-69
2022/02/01 05:56:23;;;;;;;20.80;2.17;;;2.90;99.90;;;;;;5084537;28;20036;-68
2022/02/01 05:58:49;;;;;;;14.05;1.48;;;3.00;99.90;;;;;;5065401;28;20061;-70
2022/02/01 06:01:15;;;;;;;8.75;1.67;;;3.00;99.90;;;;;;5065071;28;20036;-68
2022/02/01 06:03:40;;;;;;;0.93;0.85;;;3.00;99.90;;;;;;5076485;28;20021;-68
2022/02/01 06:06:07;;;;;;;11.88;0.88;;;3.00;99.90;;;;;;5083683;28;20052;-68
2022/02/01 06:08:33;;;;;;;3.63;0.98;;;3.00;99.90;;;;;;5068385;28;20027;-68
2022/02/01 06:10:59;;;;;;;4.70;1.02;;;3.10;99.90;;;;;;5072497;28;20025;-68
2022/02/01 06:13:25;;;;;;;3.45;1.30;;;3.10;99.90;;;;;;5071290;28;20048;-69
2022/02/01 06:15:50;;;;;;;1.38;0.50;;;3.10;99.90;;;;;;5081105;28;20066;-69
2022/02/01 06:18:16;;;;;;;14.30;1.08;;;3.10;99.90;;;;;;5076638;28;20033;-70
2022/02/01 06:20:42;;;;;;;0.82;0.63;;;3.20;99.90;;;;;;5065408;28;20029;-68
2022/02/01 06:23:15;;;;;;;9.27;0.28;;;3.20;99.90;;;;;;5071061;28;20064;-69
2022/02/01 06:25:48;;;;;;;7.45;1.55;;;3.20;99.90;;;;;;5080931;28;20012;-69
2022/02/01 06:28:25;;;;;;;4.20;0.93;;;3.20;99.90;;;;;;5072175;28;20506;-69
2022/02/01 06:30:52;;;;;;;17.25;1.42;;;3.20;99.90;;;;;;5079397;28;20171;-70
2022/02/01 06:33:19;;;;;;;1.55;0.85;;;3.20;99.90;;;;;;5083926;28;20045;-69
2022/02/01 06:35:45;;;;;;;10.20;1.00;;;3.20;99.90;;;;;;5086046;28;20033;-69
2022/02/01 06:38:12;;;;;;;8.15;0.57;;;3.20;99.90;;;;;;5085450;28;20104;-70
2022/02/01 06:40:42;;;;;;;3.45;0.63;;;3.20;99.90;;;;;;5071073;28;20025;-70
2022/02/01 06:43:08;;;;;;;2.80;0.88;;;3.30;99.90;;;;;;5085002;28;20033;-69
2022/02/01 06:45:33;;;;;;;6.45;1.85;;;3.30;99.90;;;;;;5087249;28;20108;-70
2022/02/01 06:47:59;;;;;;;4.57;0.55;;;3.30;99.90;;;;;;5064706;28;20036;-71
2022/02/01 06:50:27;;;;;;;1.23;0.60;;;3.30;99.90;;;;;;5084466;28;20445;-71
2022/02/01 06:52:59;;;;;;;5.93;0.63;;;3.30;99.90;;;;;;5077242;28;20048;-69
2022/02/01 06:58:04;;;;;;;2.42;0.73;;;3.30;99.90;;;;;;5081414;28;20035;-69
2022/02/01 07:00:31;;;;;;;7.32;0.80;;;3.30;99.90;;;;;;5086784;28;20025;-68
2022/02/01 07:02:57;;;;;;;2.28;0.93;;;3.30;99.90;;;;;;5068686;28;20025;-69
2022/02/01 07:05:23;;;;;;;12.68;2.30;;;3.40;99.90;;;;;;5067523;28;20025;-69
2022/02/01 07:07:52;;;;;;;6.75;0.85;;;3.40;99.90;;;;;;5068714;28;20108;-70
2022/02/01 07:10:18;;;;;;;8.18;1.08;;;3.40;99.90;;;;;;5067588;28;20079;-69
2022/02/01 07:12:44;;;;;;;2.85;1.13;;;3.40;99.90;;;;;;5077098;28;20480;-67
2022/02/01 07:15:10;;;;;;;8.80;1.00;;;3.40;99.90;;;;;;5076741;28;20033;-69
2022/02/01 07:17:51;;;;;;;8.85;0.82;;;3.40;99.90;;;;;;5071060;28;20088;-69
2022/02/01 07:20:20;;;;;;;5.57;0.90;;;3.40;99.90;;;;;;5073169;28;20050;-71
2022/02/01 07:22:48;;;;;;;1.63;0.50;;;3.40;99.90;;;;;;5074026;28;20021;-69
2022/02/01 07:25:23;;;;;;;9.80;1.23;;;3.40;99.90;;;;;;5067103;28;20029;-68
2022/02/01 07:27:53;;;;;;;2.05;0.73;;;3.40;99.90;;;;;;5082280;28;20029;-71
2022/02/01 07:30:24;;;;;;;1.98;0.73;;;3.40;99.90;;;;;;5085404;28;20059;-70
2022/02/01 07:32:52;;;;;;;2.95;0.38;;;3.40;99.90;;;;;;5071569;28;20037;-69
2022/02/01 07:35:21;;;;;;;6.00;1.25;;;3.40;99.90;;;;;;5067420;28;20025;-68
2022/02/01 07:37:52;;;;;;;1.30;0.82;;;3.40;99.90;;;;;;5071817;28;20029;-70
2022/02/01 07:40:20;;;;;;;12.52;0.65;;;3.50;99.90;;;;;;5087074;28;20021;-69
2022/02/01 07:42:46;;;;;;;1.35;0.32;;;3.50;99.90;;;;;;5087097;28;20033;-70
2022/02/01 07:45:14;;;;;;;19.88;2.22;;;3.50;99.90;;;;;;5086647;28;20094;-68
2022/02/01 07:47:39;;;;;;;0.80;0.80;;;3.50;99.90;;;;;;5079929;28;20183;-70
2022/02/01 07:50:06;;;;;;;1.23;0.70;;;3.50;99.90;;;;;;5074447;28;21284;-67
2022/02/01 07:52:32;;;;;;;3.10;0.65;;;3.50;99.90;;;;;;5078573;28;20049;-67
2022/02/01 07:54:58;;;;;;;1.27;0.70;;;3.50;99.90;;;;;;5068591;28;20025;-69
2022/02/01 07:57:23;;;;;;;7.00;1.42;;;3.50;99.90;;;;;;5075933;28;20032;-68
2022/02/01 07:59:53;;;;;;;5.95;0.90;;;3.60;99.90;;;;;;5070060;28;20054;-71
2022/02/01 08:02:23;;;;;;;1.13;0.28;;;3.60;99.90;;;;;;5068941;28;20029;-68
2022/02/01 08:04:49;;;;;;;4.20;0.90;;;3.60;99.90;;;;;;5071691;28;20041;-69
2022/02/01 08:07:15;;;;;;;5.70;0.80;;;3.60;99.90;;;;;;5073713;28;20557;-69
2022/02/01 08:09:47;;;;;;;5.60;1.58;;;3.70;99.90;;;;;;5049011;28;20112;-71
2022/02/01 08:12:33;;;;;;;3.58;1.00;;;3.70;99.90;;;;;;5068794;28;20092;-69
2022/02/01 08:20:16;;;;;;;3.10;0.60;;;3.90;99.90;;;;;;5067044;28;20099;-71
2022/02/01 08:25:10;;;;;;;6.75;0.60;;;3.90;99.90;;;;;;5085890;28;20040;-70
2022/02/01 08:27:36;;;;;;;2.47;0.73;;;4.00;99.90;;;;;;5085872;28;20032;-70
2022/02/01 08:30:07;;;;;;;2.30;0.88;;;4.00;99.90;;;;;;5080528;28;20076;-70
2022/02/01 08:32:33;;;;;;;1.02;0.40;;;4.00;99.90;;;;;;5076817;28;20033;-70
2022/02/01 08:35:01;;;;;;;3.58;0.98;;;4.00;99.90;;;;;;5074628;28;20041;-69
2022/02/01 08:37:26;;;;;;;5.78;1.52;;;4.00;99.90;;;;;;5068007;28;20032;-72
2022/02/01 08:39:52;;;;;;;9.13;1.67;;;4.00;99.90;;;;;;5075962;28;20112;-71
2022/02/01 08:42:18;;;;;;;1.63;0.77;;;4.00;99.90;;;;;;5069335;28;20041;-71
2022/02/01 08:44:44;;;;;;;4.25;1.00;;;4.00;99.90;;;;;;5098434;28;20023;-70
2022/02/01 08:47:11;;;;;;;4.15;1.30;;;4.00;99.90;;;;;;5105681;28;20509;-70
2022/02/01 08:49:37;;;;;;;15.80;1.52;;;4.00;99.90;;;;;;5090653;28;20043;-69
2022/02/01 08:52:07;;;;;;;4.50;1.42;;;4.10;99.90;;;;;;5090191;28;20202;-69
2022/02/01 08:54:34;;;;;;;8.93;1.33;;;4.10;99.90;;;;;;5100990;28;20049;-68
2022/02/01 08:59:46;;;;;;;7.57;1.10;;;4.20;99.90;;;;;;5085734;28;20044;-71
2022/02/01 09:02:15;;;;;;;4.03;1.60;;;4.20;99.90;;;;;;5097952;28;20036;-69
2022/02/01 09:04:41;;;;;;;15.10;1.95;;;4.20;99.90;;;;;;5104891;28;20059;-69
2022/02/01 09:07:07;;;;;;;9.27;1.52;;;4.20;99.90;;;;;;5087998;28;20036;-70
2022/02/01 09:09:33;;;;;;;8.23;1.63;;;4.20;99.90;;;;;;5101936;28;20031;-69
2022/02/01 09:11:59;;;;;;;1.58;0.82;;;4.20;99.90;;;;;;5103227;28;20028;-70
2022/02/01 09:14:25;;;;;;;13.55;2.63;;;4.20;99.90;;;;;;5074734;28;20058;-70
2022/02/01 09:16:52;;;;;;;5.00;1.67;;;4.20;99.90;;;;;;5067029;28;20028;-73
2022/02/01 09:19:19;;;;;;;6.93;1.45;;;4.20;99.90;;;;;;5053394;28;20056;-69
2022/02/01 09:21:45;;;;;;;4.75;2.20;;;4.20;99.90;;;;;;5065689;28;20759;-70
2022/02/01 09:24:11;;;;;;;9.10;2.42;;;4.30;99.90;;;;;;5081077;28;20028;-69
2022/02/01 09:26:40;;;;;;;13.63;2.55;;;4.30;99.90;;;;;;5079615;28;20052;-70
2022/02/01 09:29:09;;;;;;;8.15;1.90;;;4.30;99.90;;;;;;5064768;28;20051;-69
2022/02/01 09:31:38;;;;;;;3.30;1.75;;;4.30;99.90;;;;;;5064865;28;20025;-72
2022/02/01 09:34:06;;;;;;;6.30;1.88;;;4.30;99.90;;;;;;5064699;28;20044;-71
2022/02/01 09:36:31;;;;;;;4.35;1.13;;;4.30;99.90;;;;;;5068811;28;20025;-70
2022/02/01 09:38:57;;;;;;;3.33;1.40;;;4.30;99.90;;;;;;5077523;28;20058;-72
2022/02/01 09:41:25;;;;;;;6.43;2.42;;;4.30;99.90;;;;;;5075891;28;20078;-70
2022/02/01 09:43:52;;;;;;;5.90;2.08;;;4.30;99.90;;;;;;5084901;28;20020;-69
2022/02/01 09:46:18;;;;;;;4.57;1.98;;;4.40;99.90;;;;;;5084229;28;20031;-72
2022/02/01 09:48:45;;;;;;;5.90;1.77;;;4.40;99.90;;;;;;5074908;28;20037;-70
2022/02/01 09:51:10;;;;;;;11.15;2.50;;;4.40;99.90;;;;;;5084560;28;20615;-71
2022/02/01 09:53:37;;;;;;;5.78;2.22;;;4.40;99.90;;;;;;5083993;28;20646;-72
2022/02/01 09:56:03;;;;;;;2.15;1.67;;;4.40;99.90;;;;;;5072557;28;20025;-71
2022/02/01 09:58:34;;;;;;;11.75;1.85;;;4.40;99.90;;;;;;5075300;28;20040;-70
2022/02/01 10:01:13;;;;;;;12.52;2.92;;;4.40;99.90;;;;;;5068503;28;20036;-69
2022/02/01 10:03:39;;;;;;;8.20;2.63;;;4.50;99.90;;;;;;5064800;28;20064;-71
2022/02/01 10:06:07;;;;;;;6.10;2.17;;;4.40;99.90;;;;;;5064548;28;20511;-69
2022/02/01 10:08:33;;;;;;;6.32;2.83;;;4.50;99.90;;;;;;5046432;28;20031;-68
2022/02/01 10:10:59;;;;;;;8.90;2.45;;;4.50;99.90;;;;;;5086440;28;20029;-70
2022/02/01 10:13:25;;;;;;;6.43;2.80;;;4.40;99.90;;;;;;5080910;28;20047;-70
2022/02/01 10:16:13;;;;;;;6.28;3.05;;;4.40;99.90;;;;;;5075666;28;20017;-70
2022/02/01 10:18:39;;;;;;;10.93;3.42;;;4.30;99.90;;;;;;5068526;28;20040;-70
2022/02/01 10:21:09;;;;;;;6.50;3.42;;;4.40;99.90;;;;;;5068738;28;20021;-69
2022/02/01 10:23:40;;;;;;;5.45;2.67;;;4.40;99.90;;;;;;5068395;28;20089;-72
2022/02/01 10:26:10;;;;;;;18.92;3.78;;;4.40;99.90;;;;;;5068596;28;20025;-68
2022/02/01 10:28:51;;;;;;;6.43;2.55;;;4.40;99.90;;;;;;5085432;28;20035;-71
2022/02/01 10:31:25;;;;;;;8.70;3.58;;;4.40;99.90;;;;;;5087872;28;20484;-71
2022/02/01 10:36:19;;;;;;;6.40;3.13;;;4.40;99.90;;;;;;5071695;28;20047;-70
2022/02/01 10:38:45;;;;;;;4.43;2.38;;;4.40;99.90;;;;;;5073885;28;20037;-71
2022/02/01 10:41:12;;;;;;;9.40;3.45;;;4.50;99.90;;;;;;5085730;28;20035;-71
2022/02/01 10:43:38;;;;;;;8.85;2.88;;;4.50;99.90;;;;;;5079033;28;20036;-71
2022/02/01 10:46:13;;;;;;;7.40;1.92;;;4.50;99.90;;;;;;5067576;28;20021;-70
2022/02/01 10:48:45;;;;;;;3.75;1.88;;;4.50;99.90;;;;;;5067352;28;20053;-69
2022/02/01 10:51:19;;;;;;;10.57;2.50;;;4.60;99.90;;;;;;5067333;28;20025;-69
2022/02/01 10:53:47;;;;;;;6.25;3.17;;;4.60;99.90;;;;;;5067643;28;20048;-70
2022/02/01 10:56:16;;;;;;;4.20;1.98;;;4.70;99.90;;;;;;5073067;28;20040;-69
2022/02/01 10:58:47;;;;;;;6.93;2.72;;;4.70;99.90;;;;;;5066603;28;20085;-70
2022/02/01 11:01:13;;;;;;;6.72;2.00;;;4.70;99.90;;;;;;5066430;28;20362;-72
2022/02/01 11:03:50;;;;;;;6.78;2.58;;;4.70;99.90;;;;;;5065388;28;20040;-72
2022/02/01 11:06:16;;;;;;;6.55;2.75;;;4.80;99.90;;;;;;5075369;28;20012;-73
2022/02/01 11:08:46;;;;;;;5.07;2.40;;;4.80;99.90;;;;;;5063022;28;20029;-70
2022/02/01 11:11:17;;;;;;;6.00;2.55;;;4.80;99.90;;;;;;5067148;28;20112;-73
2022/02/01 11:13:46;;;;;;;6.68;2.58;;;4.80;99.90;;;;;;5058870;28;20116;-69
2022/02/01 11:16:17;;;;;;;4.43;2.40;;;4.90;99.90;;;;;;5075172;28;20823;-71
2022/02/01 11:19:13;;;;;;;3.72;1.75;;;4.90;99.90;;;;;;5081843;28;20021;-72
2022/02/01 11:21:54;;;;;;;3.30;1.88;;;4.90;99.90;;;;;;5062560;28;20045;-74
2022/02/01 11:24:34;;;;;;;5.63;2.78;;;5.00;99.90;;;;;;5086601;28;20106;-79
2022/02/01 11:27:03;;;;;;;21.83;2.33;;;5.00;99.90;;;;;;5084310;28;20025;-73
2022/02/01 11:29:39;;;;;;;3.00;1.75;;;5.00;99.90;;;;;;5066501;28;20028;-73
2022/02/01 11:32:05;;;;;;;8.52;2.70;;;5.10;99.90;;;;;;5068498;28;20032;-74
2022/02/01 11:34:38;;;;;;;7.13;2.10;;;5.10;99.90;;;;;;5086700;28;20059;-75
2022/02/01 11:37:09;;;;;;;3.35;2.03;;;5.10;99.90;;;;;;5085191;28;20056;-78
2022/02/01 11:39:46;;;;;;;3.80;1.95;;;5.20;99.90;;;;;;5085034;28;20039;-74
2022/02/01 11:42:13;;;;;;;4.97;2.45;;;5.20;99.90;;;;;;5068367;28;20035;-78
2022/02/01 11:44:38;;;;;;;3.40;1.95;;;5.20;99.90;;;;;;5086132;28;20025;-75
2022/02/01 11:47:13;;;;;;;2.42;1.48;;;5.20;99.90;;;;;;5086189;28;20118;-74
2022/02/01 11:49:54;;;;;;;3.70;1.92;;;5.30;99.90;;;;;;5086068;28;20072;-74
2022/02/01 11:52:22;;;;;;;2.20;1.27;;;5.30;99.90;;;;;;5086084;28;20035;-71
2022/02/01 11:54:59;;;;;;;3.85;1.73;;;5.40;99.90;;;;;;5086117;28;20369;-73
2022/02/01 11:57:27;;;;;;;2.95;1.58;;;5.50;99.90;;;;;;5067859;28;20054;-74
2022/02/01 12:00:08;;;;;;;3.90;1.42;;;5.50;99.90;;;;;;5085176;28;20025;-76
2022/02/01 12:02:41;;;;;;;4.70;1.38;;;5.60;99.90;;;;;;5062289;28;20055;-76
2022/02/01 12:05:13;;;;;;;4.33;1.50;;;5.60;99.90;;;;;;5048395;28;20029;-75
2022/02/01 12:07:53;;;;;;;2.35;1.75;;;5.60;99.90;;;;;;5065858;28;20298;-74
2022/02/01 12:10:20;;;;;;;4.80;1.80;;;5.70;99.90;;;;;;5066214;28;20381;-77
2022/02/01 12:12:47;;;;;;;2.38;1.33;;;5.70;99.90;;;;;;5048084;28;20087;-76
2022/02/01 12:15:13;;;;;;;1.95;1.02;;;5.70;99.90;;;;;;5084759;28;20028;-76
2022/02/01 12:17:49;;;;;;;1.98;0.77;;;5.70;99.90;;;;;;5071882;28;20029;-77
2022/02/01 12:20:18;;;;;;;2.60;1.08;;;5.80;99.90;;;;;;5047667;28;20055;-74
2022/02/01 12:23:08;;;;;;;1.30;0.82;;;5.80;99.90;;;;;;5065653;28;20084;-75
2022/02/01 12:25:34;;;;;;;4.85;0.90;;;5.80;99.90;;;;;;5065512;28;20120;-79
2022/02/01 12:27:59;;;;;;;0.90;0.30;;;5.80;99.90;;;;;;5047645;28;20029;-79
2022/02/01 12:30:25;;;;;;;2.58;1.17;;;5.80;99.90;;;;;;5059299;28;20477;-77
2022/02/01 12:32:55;;;;;;;1.30;0.52;;;5.80;99.90;;;;;;5078649;28;20037;-77
2022/02/01 12:35:36;;;;;;;1.55;0.75;;;5.90;99.90;;;;;;5085542;28;20032;-77
2022/02/01 12:38:19;;;;;;;1.50;0.77;;;6.00;99.90;;;;;;5084149;28;20096;-79
2022/02/01 12:40:58;;;;;;;1.50;0.82;;;6.00;99.90;;;;;;5075075;28;20025;-76
2022/02/01 12:43:28;;;;;;;1.95;0.68;;;6.10;99.90;;;;;;5079171;28;20025;-76
2022/02/01 12:46:17;;;;;;;1.50;0.68;;;6.10;99.90;;;;;;5064800;28;20023;-83
2022/02/01 12:48:48;;;;;;;3.80;1.60;;;6.10;99.90;;;;;;5063843;28;20378;-78
2022/02/01 12:51:15;;;;;;;2.30;1.25;;;6.20;99.90;;;;;;5064215;28;20064;-81
2022/02/01 12:53:48;;;;;;;3.72;1.38;;;6.20;99.90;;;;;;5056685;28;20087;-76
2022/02/01 12:56:23;;;;;;;2.45;1.00;;;6.30;99.90;;;;;;5067010;28;20420;-78
2022/02/01 12:58:57;;;;;;;1.13;0.60;;;6.30;99.90;;;;;;5075028;28;20029;-76
2022/02/01 13:01:35;;;;;;;4.68;1.70;;;6.30;99.90;;;;;;5047292;28;20033;-79
2022/02/01 13:04:03;;;;;;;2.88;1.10;;;6.40;99.90;;;;;;5064955;28;20032;-80
2022/02/01 13:06:33;;;;;;;1.60;0.77;;;6.40;99.90;;;;;;5047006;28;20079;-78
2022/02/01 13:14:43;;;;;;;1.75;0.82;;;6.60;99.90;;;;;;5069314;28;20043;-77
2022/02/01 13:17:21;;;;;;;7.20;1.85;;;6.60;99.90;;;;;;5083585;28;20575;-77
2022/02/01 13:20:06;;;;;;;3.70;1.70;;;6.70;99.90;;;;;;5084302;28;20020;-80
2022/02/01 13:22:33;;;;;;;;;;;6.70;99.90;;;;;;5080366;28;20017;-74
2022/02/01 13:25:03;;;;;;;2.70;1.30;;;6.70;99.90;;;;;;5064233;28;19913;-76
2022/02/01 13:27:29;;;;;;;6.72;1.70;;;6.80;99.90;;;;;;5064341;28;20021;-78
2022/02/01 13:30:06;;;;;;;4.05;1.83;;;6.80;99.90;;;;;;5064295;28;20025;-76
2022/02/01 13:32:34;;;;;;;6.43;2.00;;;6.80;99.90;;;;;;5064657;28;20028;-77
2022/02/01 13:35:05;;;;;;;7.97;2.25;;;6.80;99.90;;;;;;5083090;28;20032;-77
2022/02/01 13:37:31;;;;;;;4.15;1.95;;;6.80;99.90;;;;;;5084503;28;20440;-78
2022/02/01 13:39:57;;;;;;;5.97;2.50;;;6.90;99.90;;;;;;5083770;28;20024;-80
2022/02/01 13:42:29;;;;;;;8.60;2.58;;;6.90;99.90;;;;;;5063289;28;20495;-81
2022/02/01 13:44:59;;;;;;;6.65;3.80;;;6.90;99.90;;;;;;5080889;28;20038;-79
2022/02/01 13:47:42;;;;;;;9.18;3.00;;;7.00;99.90;;;;;;5057386;28;20028;-83
2022/02/01 13:50:17;;;;;;;10.43;2.00;;;7.00;99.90;;;;;;5065880;28;20641;-77
2022/02/01 13:52:43;;;;;;;14.88;2.42;;;7.00;99.90;;;;;;5083686;28;20056;-77
2022/02/01 13:55:25;;;;;;;2.75;2.10;;;7.00;99.90;;;;;;5083103;28;20060;-75
2022/02/01 13:58:23;;;;;;;11.15;3.50;;;7.10;99.90;;;;;;5073544;28;20089;-77
2022/02/01 14:00:54;;;;;;;9.27;2.42;;;7.10;99.90;;;;;;5030869;28;20083;-80
2022/02/01 14:06:38;;;;;;;20.15;2.17;;;7.20;99.90;;;;;;5062880;28;20040;-75
2022/02/01 14:16:03;;;;;;;7.65;2.35;;;7.30;99.90;;;;;;5071072;28;20102;-78
2022/02/01 14:25:45;;;;;;;7.07;2.10;;;7.40;99.90;;;;;;5064438;28;20029;-76
2022/02/01 14:34:03;;;;;;;;;;;7.50;99.90;;;;;;5064597;28;20044;-73
2022/02/01 14:36:31;;;;;;;3.28;1.52;;;7.50;99.90;;;;;;5072360;28;19991;-76
2022/02/01 14:46:53;;;;;;;12.93;2.13;;;7.60;99.90;;;;;;5078039;28;20116;-72
2022/02/01 14:49:23;;;;;;;7.22;1.95;;;7.50;99.90;;;;;;5066975;28;20033;-77
2022/02/01 14:51:52;;;;;;;9.68;2.40;;;7.60;99.90;;;;;;5073018;28;20086;-72
2022/02/01 14:54:21;;;;;;;9.73;2.72;;;7.60;99.90;;;;;;5063638;28;20090;-73
2022/02/01 14:56:51;;;;;;;7.95;1.65;;;7.60;99.90;;;;;;5068654;28;20036;-72
2022/02/01 15:07:21;;;;;;;8.38;2.53;;;7.60;99.90;;;;;;5069085;28;20140;-70
2022/02/01 15:12:52;;;;;;;8.15;2.65;;;7.60;99.90;;;;;;4991103;28;20045;-73
2022/02/01 15:15:18;;;;;;;8.18;1.95;;;7.50;99.90;;;;;;5074639;28;20037;-71
2022/02/01 15:17:44;;;;;;;13.65;2.55;;;7.60;99.90;;;;;;5066832;28;20031;-69
2022/02/01 15:20:11;;;;;;;6.13;2.28;;;7.60;99.90;;;;;;5066448;28;20021;-76
2022/02/01 15:22:38;;;;;;;28.08;2.90;;;7.70;99.90;;;;;;5065299;28;20388;-72